»·PEaware :: DAL690 KPDX-KSLC

DAL690 :: KPDX-KSLC

FLIGHT INFORMATION

Flight Status: Arrived
Operator:
Delta Air Lines
More flights by this operator :: More flights under this callsign
Pilot: Elliott T. (30246)
Aircraft: BOEING 737-800
(B738)
More flights by this aircraft type
Origin: KPDX Portland Intl
United States
Destination: KSLC Salt Lake City Intl
United States
More flights between these airports :: More routes between these airports
Route: WHAMY4 IMB J15 BOI DCT BYI SKEES5
File this flight plan on PilotEdge
Remarks:
Altitude:
(Current/Filed)
35,000ft
Speed:
(Current/Filed)
457kts
Departed: 07-Jul-20 04:43 PM
Arrived: 07-Jul-20 06:10 PM
Distance/Time
Traveled:
546nm/1:27
Distance/Time
To Go:
Arrived

Flight Plot

Page will automatically refresh every two minutes.


Map Options




Map Legend


Flown Route
Filed Route
Departure Airport
Arrival Airport
Navaid (VOR, NDB)
Fix

Horizontal Profiles

Position Reports

Time Latitude Longitude Heading Altitude Ground
Speed
07-Jul-20 16:10 45.591142 -122.596879 71 27ft 0kts
07-Jul-20 16:11 45.591142 -122.596879 71 27ft 0kts
07-Jul-20 16:12 45.591142 -122.596879 71 27ft 0kts
07-Jul-20 16:13 45.591142 -122.596879 71 27ft 0kts
07-Jul-20 16:14 45.591142 -122.596879 71 27ft 0kts
07-Jul-20 16:15 45.591142 -122.596879 71 27ft 0kts
07-Jul-20 16:16 45.591142 -122.596879 71 27ft 0kts
07-Jul-20 16:17 45.591142 -122.596879 71 27ft 0kts
07-Jul-20 16:18 45.591142 -122.596879 71 27ft 0kts
07-Jul-20 16:19 45.591142 -122.596879 71 27ft 0kts
07-Jul-20 16:20 45.591142 -122.596879 71 27ft 0kts
07-Jul-20 16:21 45.591142 -122.596879 71 27ft 0kts
07-Jul-20 16:22 45.591142 -122.596879 71 27ft 0kts
07-Jul-20 16:23 45.591142 -122.596879 71 27ft 0kts
07-Jul-20 16:24 45.591142 -122.596879 71 27ft 0kts
07-Jul-20 16:25 45.591142 -122.596879 71 27ft 0kts
07-Jul-20 16:26 45.591142 -122.596880 71 27ft 0kts
07-Jul-20 16:27 45.590964 -122.597424 30 27ft 2kts
07-Jul-20 16:28 45.590553 -122.597244 298 27ft 1kts
07-Jul-20 16:29 45.590548 -122.597231 298 27ft 0kts
07-Jul-20 16:30 45.590548 -122.597231 298 27ft 0kts
07-Jul-20 16:31 45.591065 -122.598432 309 27ft 7kts
07-Jul-20 16:32 45.591489 -122.599095 315 27ft 0kts
07-Jul-20 16:33 45.591489 -122.599095 315 27ft 0kts
07-Jul-20 16:34 45.591501 -122.599100 333 27ft 0kts
07-Jul-20 16:35 45.592983 -122.597735 18 29ft 12kts
07-Jul-20 16:36 45.595196 -122.600912 21 30ft 5kts
07-Jul-20 16:37 45.595482 -122.600702 28 30ft 0kts
07-Jul-20 16:38 45.595482 -122.600702 28 30ft 0kts
07-Jul-20 16:39 45.595482 -122.600702 28 30ft 0kts
07-Jul-20 16:40 45.595482 -122.600702 28 30ft 0kts
07-Jul-20 16:41 45.596154 -122.599181 114 30ft 13kts
07-Jul-20 16:42 45.580438 -122.557835 116 1139ft 174kts
07-Jul-20 16:43 45.567256 -122.474114 96 2884ft 256kts
07-Jul-20 16:44 45.549599 -122.371832 101 5916ft 275kts
07-Jul-20 16:45 45.500445 -122.286195 147 8751ft 300kts
07-Jul-20 16:46 45.432749 -122.204636 139 10741ft 349kts
07-Jul-20 16:47 45.360194 -122.112294 141 13699ft 359kts
07-Jul-20 16:48 45.285482 -122.013742 133 16355ft 377kts
07-Jul-20 16:49 45.230258 -121.882739 112 18754ft 398kts
07-Jul-20 16:50 45.191338 -121.732282 110 20895ft 415kts
07-Jul-20 16:51 45.151183 -121.576068 110 22860ft 430kts
07-Jul-20 16:52 45.109313 -121.414134 110 24084ft 439kts
07-Jul-20 16:53 45.066554 -121.249656 111 25782ft 452kts
07-Jul-20 16:54 45.022465 -121.081165 112 27361ft 462kts
07-Jul-20 16:55 44.977264 -120.909867 112 28752ft 473kts
07-Jul-20 16:56 44.930336 -120.733439 112 29760ft 491kts
07-Jul-20 16:57 44.881200 -120.550089 112 30832ft 504kts
07-Jul-20 16:58 44.831379 -120.365597 112 32340ft 503kts
07-Jul-20 16:59 44.781645 -120.182485 113 33693ft 502kts
07-Jul-20 17:00 44.732110 -120.001705 113 34980ft 499kts
07-Jul-20 17:01 44.681625 -119.818985 113 35109ft 500kts
07-Jul-20 17:02 44.629795 -119.638185 115 35110ft 499kts
07-Jul-20 17:03 44.575441 -119.458719 115 35100ft 500kts
07-Jul-20 17:04 44.522320 -119.279173 115 35100ft 499kts
07-Jul-20 17:05 44.469118 -119.099027 115 35100ft 499kts
07-Jul-20 17:06 44.415836 -118.919751 115 35100ft 499kts
07-Jul-20 17:07 44.362327 -118.740954 115 35100ft 499kts
07-Jul-20 17:08 44.308329 -118.561783 115 35100ft 499kts
07-Jul-20 17:09 44.254287 -118.383722 115 35100ft 499kts
07-Jul-20 17:10 44.200922 -118.208767 116 35097ft 498kts
07-Jul-20 17:11 44.146280 -118.031023 116 35090ft 498kts
07-Jul-20 17:12 44.091335 -117.853646 116 35061ft 498kts
07-Jul-20 17:13 44.036193 -117.676885 116 35010ft 498kts
07-Jul-20 17:14 43.980926 -117.500931 116 35000ft 498kts
07-Jul-20 17:15 43.925205 -117.324705 117 34999ft 498kts
07-Jul-20 17:16 43.869427 -117.149142 117 35000ft 498kts
07-Jul-20 17:17 43.813342 -116.974051 117 35000ft 497kts
07-Jul-20 17:18 43.757169 -116.799921 117 35005ft 495kts
07-Jul-20 17:19 43.700993 -116.626955 117 35009ft 495kts
07-Jul-20 17:21 43.644238 -116.453340 117 35002ft 495kts
07-Jul-20 17:22 43.587535 -116.280869 118 35007ft 494kts
07-Jul-20 17:23 43.524275 -116.113962 125 35018ft 491kts
07-Jul-20 17:24 43.456606 -115.951141 123 35013ft 492kts
07-Jul-20 17:25 43.389649 -115.787011 123 35002ft 492kts
07-Jul-20 17:26 43.322983 -115.623495 123 35000ft 492kts
07-Jul-20 17:27 43.255956 -115.459759 123 35000ft 492kts
07-Jul-20 17:28 43.188790 -115.296459 124 34999ft 491kts
07-Jul-20 17:29 43.121629 -115.133937 124 35006ft 491kts
07-Jul-20 17:30 43.054498 -114.972557 124 35031ft 491kts
07-Jul-20 17:31 42.986344 -114.809672 124 35036ft 490kts
07-Jul-20 17:32 42.918859 -114.649379 123 35034ft 488kts
07-Jul-20 17:33 42.851098 -114.489108 123 34615ft 492kts
07-Jul-20 17:34 42.782949 -114.328941 123 33108ft 488kts
07-Jul-20 17:35 42.714306 -114.168301 123 31612ft 494kts
07-Jul-20 17:36 42.646703 -114.010994 123 30101ft 476kts
07-Jul-20 17:36 42.584611 -113.889457 134 28851ft 464kts
07-Jul-20 17:38 42.484894 -113.741803 137 27197ft 447kts
07-Jul-20 17:39 42.397675 -113.622125 138 26403ft 446kts
07-Jul-20 17:39 42.325279 -113.524775 138 25853ft 438kts
07-Jul-20 17:40 42.238450 -113.409475 138 25355ft 437kts
07-Jul-20 17:41 42.151700 -113.294964 139 24864ft 441kts
07-Jul-20 17:42 42.060658 -113.175074 139 24350ft 456kts
07-Jul-20 17:43 41.970351 -113.056411 139 23848ft 454kts
07-Jul-20 17:44 41.880583 -112.939000 139 23348ft 449kts
07-Jul-20 17:45 41.791235 -112.822662 139 22845ft 444kts
07-Jul-20 17:46 41.703628 -112.708860 139 21906ft 432kts
07-Jul-20 17:47 41.618580 -112.600313 139 19463ft 416kts
07-Jul-20 17:48 41.536602 -112.495879 141 17161ft 398kts
07-Jul-20 17:49 41.449086 -112.419022 155 17022ft 375kts
07-Jul-20 17:50 41.357194 -112.354697 155 17026ft 374kts
07-Jul-20 17:51 41.264277 -112.289065 155 14885ft 373kts
07-Jul-20 17:52 41.177515 -112.224989 152 12552ft 351kts
07-Jul-20 17:53 41.094242 -112.161454 155 11286ft 346kts
07-Jul-20 17:54 41.001912 -112.131194 172 11045ft 346kts
07-Jul-20 17:55 40.906681 -112.110736 172 11039ft 347kts
07-Jul-20 17:56 40.818419 -112.099730 176 11015ft 295kts
07-Jul-20 17:57 40.739053 -112.089200 175 10451ft 277kts
07-Jul-20 17:58 40.668692 -112.078869 175 10012ft 235kts
07-Jul-20 17:59 40.602879 -112.068994 175 10012ft 238kts
07-Jul-20 18:00 40.537172 -112.059347 175 10019ft 238kts
07-Jul-20 18:01 40.475348 -112.036256 122 9991ft 240kts
07-Jul-20 18:02 40.495832 -111.974257 20 9114ft 206kts
07-Jul-20 18:03 40.551391 -111.970110 355 8300ft 201kts
07-Jul-20 18:04 40.607034 -111.976054 354 7560ft 200kts
07-Jul-20 18:05 40.661177 -111.982296 354 6490ft 185kts
07-Jul-20 18:06 40.706547 -111.987542 354 5610ft 161kts
07-Jul-20 18:07 40.750691 -111.992618 355 4734ft 159kts
07-Jul-20 18:08 40.790228 -111.997219 356 4226ft 62kts
07-Jul-20 18:09 40.794837 -111.996703 35 4226ft 0kts
07-Jul-20 18:10 40.795145 -111.996028 101 4226ft 7kts
07-Jul-20 18:11 40.791432 -111.995175 173 4226ft 11kts
07-Jul-20 18:12 40.791200 -111.990764 84 4226ft 18kts
07-Jul-20 18:13 40.788694 -111.987031 84 4226ft 19kts
07-Jul-20 18:14 40.788699 -111.985615 88 4226ft 0kts

Navigation Log

Ident Type
Flight plan parsing failed, navigation log unavailable